createdAt,value
2023-04-28T00:01:02.225Z,23.90
2023-04-28T00:11:02.214Z,24.50
2023-04-28T00:21:02.297Z,24.30
2023-04-28T00:31:02.261Z,23.20
2023-04-28T00:41:02.243Z,26.00
2023-04-28T00:51:02.241Z,26.00
2023-04-28T01:01:02.270Z,21.70
2023-04-28T01:11:02.250Z,26.10
2023-04-28T01:21:02.282Z,25.90
2023-04-28T01:31:02.279Z,26.50
2023-04-28T01:41:02.256Z,25.30
2023-04-28T01:51:02.279Z,24.00
2023-04-28T02:01:02.274Z,24.20
2023-04-28T02:11:02.278Z,23.50
2023-04-28T02:21:02.283Z,21.70
2023-04-28T02:31:02.366Z,21.80
2023-04-28T02:41:02.276Z,20.90
2023-04-28T02:51:02.281Z,20.30
2023-04-28T03:01:02.358Z,19.20
2023-04-28T03:11:02.270Z,20.30
2023-04-28T03:21:02.306Z,20.80
2023-04-28T03:31:02.290Z,20.20
2023-04-28T03:41:02.298Z,22.00
2023-04-28T03:51:02.315Z,22.70
2023-04-28T04:01:02.306Z,23.60
2023-04-28T04:11:02.361Z,25.00
2023-04-28T04:21:02.461Z,27.50
2023-04-28T04:31:02.516Z,24.40
2023-04-28T04:41:02.336Z,24.50
2023-04-28T04:51:02.346Z,23.20
2023-04-28T05:01:02.343Z,20.80
2023-04-28T05:11:02.316Z,19.00
2023-04-28T05:21:02.335Z,12.00
2023-04-28T05:31:02.351Z,12.80
2023-04-28T05:41:02.360Z,17.30
2023-04-28T05:51:02.369Z,14.40
2023-04-28T06:01:02.381Z,12.70
2023-04-28T06:11:02.355Z,13.50
2023-04-28T06:21:02.349Z,9.50
2023-04-28T06:31:02.410Z,11.40
2023-04-28T06:41:02.362Z,8.80
2023-04-28T06:51:02.371Z,10.70
2023-04-28T07:01:02.402Z,11.10
2023-04-28T07:11:02.414Z,10.90
2023-04-28T07:21:05.306Z,11.90
2023-04-28T07:31:02.424Z,11.80
2023-04-28T07:41:02.403Z,11.80
2023-04-28T07:51:02.399Z,12.20
2023-04-28T08:01:02.399Z,8.60
2023-04-28T08:11:02.383Z,9.90
2023-04-28T08:21:02.419Z,9.50
2023-04-28T08:31:02.454Z,7.50
2023-04-28T08:41:02.394Z,6.00
2023-04-28T08:51:02.429Z,4.80
2023-04-28T09:01:02.421Z,4.70
2023-04-28T09:11:02.491Z,5.00
2023-04-28T09:21:02.413Z,6.30
2023-04-28T09:31:02.467Z,6.00
2023-04-28T09:41:02.492Z,6.20
2023-04-28T09:51:02.437Z,5.00
2023-04-28T10:01:02.506Z,5.40
2023-04-28T10:11:02.474Z,6.00
2023-04-28T10:21:02.488Z,6.10
2023-04-28T10:31:02.552Z,6.10
2023-04-28T10:41:02.473Z,6.60
2023-04-28T10:51:02.461Z,5.20
2023-04-28T11:01:02.466Z,6.30
2023-04-28T11:11:02.464Z,5.40
2023-04-28T11:21:02.468Z,5.20
2023-04-28T11:41:02.543Z,5.10
2023-04-28T11:51:02.504Z,6.10
2023-04-28T12:01:02.570Z,5.40
2023-04-28T12:11:02.543Z,5.80
2023-04-28T12:21:02.532Z,5.60
2023-04-28T12:31:02.550Z,5.30
2023-04-28T12:41:02.529Z,4.80
2023-04-28T12:51:02.517Z,3.40
2023-04-28T13:01:02.558Z,3.90
2023-04-28T13:11:04.937Z,3.40
2023-04-28T13:21:02.714Z,3.70
2023-04-28T13:31:02.551Z,3.30
2023-04-28T13:41:02.669Z,3.30
2023-04-28T13:51:02.574Z,3.30
2023-04-28T14:01:02.585Z,3.40
2023-04-28T14:11:02.582Z,3.20
2023-04-28T14:21:02.568Z,3.00
2023-04-28T14:31:02.603Z,3.00
2023-04-28T14:41:02.613Z,2.60
2023-04-28T14:51:02.581Z,2.60
2023-04-28T15:01:02.572Z,2.60
2023-04-28T15:11:02.604Z,2.70
2023-04-28T15:21:02.669Z,2.70
2023-04-28T15:31:02.759Z,2.80
2023-04-28T15:41:02.605Z,2.70
2023-04-28T15:51:02.586Z,2.60
2023-04-28T16:01:02.636Z,3.10
2023-04-28T16:11:02.640Z,3.50
2023-04-28T16:21:02.644Z,2.80
2023-04-28T16:31:02.653Z,6.10
2023-04-28T16:41:02.615Z,2.70
2023-04-28T16:51:02.755Z,3.20
2023-04-28T17:01:02.654Z,2.70
2023-04-28T17:11:02.775Z,2.80
2023-04-28T17:21:02.651Z,3.30
2023-04-28T17:31:02.819Z,3.20
2023-04-28T17:41:02.661Z,2.80
2023-04-28T17:51:02.671Z,3.30
2023-04-28T18:01:02.681Z,3.40
2023-04-28T18:11:02.680Z,3.10
2023-04-28T18:21:02.672Z,2.90
2023-04-28T18:31:02.732Z,3.40
2023-04-28T18:41:02.677Z,3.30
2023-04-28T18:51:02.694Z,3.50
2023-04-28T19:01:02.702Z,7.50
2023-04-28T19:11:02.689Z,4.50
2023-04-28T19:21:02.711Z,6.00
2023-04-28T19:31:02.833Z,5.50
2023-04-28T19:41:02.702Z,7.10
2023-04-28T19:51:02.735Z,6.20
2023-04-28T20:01:02.793Z,6.10
2023-04-28T20:11:02.723Z,6.80
2023-04-28T20:21:02.722Z,6.10
2023-04-28T20:31:02.777Z,8.10
2023-04-28T20:41:02.726Z,8.20
2023-04-28T20:51:02.722Z,8.80
2023-04-28T21:01:02.783Z,8.00
2023-04-28T21:11:02.863Z,7.50
2023-04-28T21:21:02.752Z,8.40
2023-04-28T21:31:02.764Z,8.20
2023-04-28T21:41:02.769Z,7.30
2023-04-28T21:51:02.742Z,8.50
2023-04-28T22:01:02.803Z,7.80
2023-04-28T22:11:02.820Z,9.40
2023-04-28T22:21:02.816Z,7.50
2023-04-28T22:31:02.839Z,9.40
2023-04-28T22:41:02.797Z,7.90
2023-04-28T22:51:02.781Z,9.10
2023-04-28T23:01:02.814Z,8.40
2023-04-28T23:11:02.803Z,8.20
2023-04-28T23:21:02.805Z,7.10
2023-04-28T23:31:02.820Z,8.00
2023-04-28T23:41:02.793Z,6.40
2023-04-28T23:51:02.832Z,6.20
